createdAt,value
2018-06-19T00:00:21.592Z,5.70
2018-06-19T00:01:21.533Z,5.10
2018-06-19T00:02:21.466Z,5.80
2018-06-19T00:03:21.408Z,6.70
2018-06-19T00:04:21.352Z,5.60
2018-06-19T00:05:21.287Z,7.60
2018-06-19T00:06:21.224Z,6.40
2018-06-19T00:07:21.165Z,6.00
2018-06-19T00:08:21.104Z,6.10
2018-06-19T00:09:21.050Z,6.70
2018-06-19T00:10:20.979Z,7.90
2018-06-19T00:11:20.920Z,7.00
2018-06-19T00:12:20.868Z,7.60
2018-06-19T00:13:20.798Z,7.40
2018-06-19T00:14:20.736Z,7.80
2018-06-19T00:15:20.676Z,5.70
2018-06-19T00:16:20.617Z,6.50
2018-06-19T00:17:20.553Z,6.70
2018-06-19T00:18:20.499Z,8.70
2018-06-19T00:19:20.428Z,8.40
2018-06-19T00:20:20.365Z,5.90
2018-06-19T00:21:20.316Z,6.00
2018-06-19T00:22:20.246Z,6.60
2018-06-19T00:23:20.181Z,8.10
2018-06-19T00:24:20.126Z,7.60
2018-06-19T00:25:20.068Z,7.00
2018-06-19T00:26:20.001Z,9.60
2018-06-19T00:27:19.942Z,7.10
2018-06-19T00:28:19.879Z,8.40
2018-06-19T00:29:19.814Z,6.40
2018-06-19T00:30:19.758Z,6.70
2018-06-19T00:31:19.702Z,7.00
2018-06-19T00:32:19.638Z,5.90
2018-06-19T00:33:19.577Z,5.70
2018-06-19T00:34:19.519Z,6.20
2018-06-19T00:35:19.452Z,6.00
2018-06-19T00:36:19.389Z,7.30
2018-06-19T00:37:19.333Z,6.50
2018-06-19T00:38:19.267Z,6.30
2018-06-19T00:39:19.205Z,6.40
2018-06-19T00:40:19.142Z,6.40
2018-06-19T00:41:19.084Z,6.50
2018-06-19T00:42:19.023Z,6.40
2018-06-19T00:43:18.960Z,6.10
2018-06-19T00:44:18.901Z,6.40
2018-06-19T00:45:18.838Z,6.70
2018-06-19T00:46:18.777Z,5.80
2018-06-19T00:47:18.714Z,5.60
2018-06-19T00:48:18.658Z,7.60
2018-06-19T00:49:18.601Z,5.90
2018-06-19T00:50:18.530Z,6.50
2018-06-19T00:51:18.474Z,6.30
2018-06-19T00:52:18.411Z,6.50
2018-06-19T00:53:18.350Z,7.30
2018-06-19T00:54:18.285Z,7.30
2018-06-19T00:55:18.229Z,7.50
2018-06-19T00:56:18.171Z,7.10
2018-06-19T00:57:18.119Z,8.20
2018-06-19T00:58:18.049Z,10.20
2018-06-19T00:59:17.981Z,5.50
2018-06-19T01:00:17.921Z,7.50
2018-06-19T01:01:17.860Z,7.40
2018-06-19T01:02:17.797Z,6.60
2018-06-19T01:03:17.740Z,5.70
2018-06-19T01:04:17.673Z,8.60
2018-06-19T01:05:17.617Z,6.10
2018-06-19T01:06:17.554Z,6.80
2018-06-19T01:07:17.485Z,6.10
2018-06-19T01:08:17.455Z,6.40
2018-06-19T01:09:17.367Z,6.30
2018-06-19T01:10:17.301Z,6.50
2018-06-19T01:11:17.244Z,6.20
2018-06-19T01:12:17.184Z,6.60
2018-06-19T01:13:17.129Z,7.20
2018-06-19T01:14:17.061Z,6.00
2018-06-19T01:15:16.998Z,6.70
2018-06-19T01:16:16.939Z,6.40
2018-06-19T01:17:16.880Z,6.90
2018-06-19T01:18:16.818Z,7.40
2018-06-19T01:19:16.755Z,7.90
2018-06-19T01:20:16.693Z,6.50
2018-06-19T01:21:16.635Z,6.20
2018-06-19T01:22:16.572Z,6.10
2018-06-19T01:23:16.515Z,6.50
2018-06-19T01:24:16.451Z,5.40
2018-06-19T01:25:16.387Z,6.20
2018-06-19T01:26:16.320Z,7.30
2018-06-19T01:27:16.263Z,6.50
2018-06-19T01:28:16.207Z,6.10
2018-06-19T01:29:16.164Z,6.60
2018-06-19T01:30:16.079Z,6.40
2018-06-19T01:31:16.021Z,6.70
2018-06-19T01:32:15.954Z,6.80
2018-06-19T01:33:15.896Z,6.00
2018-06-19T01:34:15.835Z,8.20
2018-06-19T01:35:15.772Z,6.30
2018-06-19T01:36:15.711Z,6.20
2018-06-19T01:37:15.651Z,6.90
2018-06-19T01:38:15.718Z,6.30
2018-06-19T01:39:15.529Z,5.80
2018-06-19T01:40:15.464Z,6.30
2018-06-19T01:41:15.403Z,9.10
2018-06-19T01:42:15.345Z,6.20
2018-06-19T01:43:15.280Z,7.30
2018-06-19T01:44:15.215Z,6.30
2018-06-19T01:45:15.159Z,8.50
2018-06-19T01:46:15.104Z,6.30
2018-06-19T01:47:15.050Z,6.30
2018-06-19T01:48:14.980Z,6.50
2018-06-19T01:49:14.908Z,5.80
2018-06-19T01:50:14.851Z,7.60
2018-06-19T01:51:14.793Z,7.80
2018-06-19T01:52:14.728Z,6.80
2018-06-19T01:53:14.663Z,5.80
2018-06-19T01:54:14.604Z,6.60
2018-06-19T01:55:14.540Z,6.10
2018-06-19T01:56:14.483Z,6.30
2018-06-19T01:57:14.422Z,6.20
2018-06-19T01:58:14.358Z,7.00
2018-06-19T01:59:14.293Z,6.50
2018-06-19T02:00:14.241Z,6.40
2018-06-19T02:01:14.174Z,6.30
2018-06-19T02:02:14.119Z,7.90
2018-06-19T02:03:14.049Z,7.60
2018-06-19T02:04:13.990Z,7.40
2018-06-19T02:05:13.929Z,7.40
2018-06-19T02:06:13.868Z,7.60
2018-06-19T02:07:13.810Z,6.70
2018-06-19T02:08:13.745Z,6.20
2018-06-19T02:09:13.693Z,6.30
2018-06-19T02:10:13.624Z,6.30
2018-06-19T02:11:13.569Z,6.40
2018-06-19T02:12:13.500Z,6.80
2018-06-19T02:13:13.436Z,6.00
2018-06-19T02:14:13.370Z,7.20
2018-06-19T02:15:13.313Z,6.00
2018-06-19T02:16:13.254Z,9.40
2018-06-19T02:17:13.191Z,8.40
2018-06-19T02:18:13.134Z,6.20
2018-06-19T02:19:13.069Z,6.60
2018-06-19T02:20:13.006Z,6.50
2018-06-19T02:21:12.946Z,7.10
2018-06-19T02:22:12.881Z,6.00
2018-06-19T02:23:12.819Z,7.50
2018-06-19T02:24:12.762Z,8.60
2018-06-19T02:25:12.703Z,6.90
2018-06-19T02:26:12.638Z,8.50
2018-06-19T02:27:12.574Z,5.70
2018-06-19T02:28:12.515Z,7.10
2018-06-19T02:29:12.454Z,6.60
2018-06-19T02:30:12.391Z,9.00
2018-06-19T02:31:12.329Z,8.30
2018-06-19T02:32:12.265Z,8.40
2018-06-19T02:33:12.207Z,6.50
2018-06-19T02:34:12.145Z,7.60
2018-06-19T02:35:12.080Z,7.20
2018-06-19T02:36:12.023Z,7.80
2018-06-19T02:37:11.963Z,7.20
2018-06-19T02:38:11.900Z,6.50
2018-06-19T02:39:11.843Z,6.50
2018-06-19T02:40:11.787Z,7.30
2018-06-19T02:41:11.711Z,6.50
2018-06-19T02:42:11.654Z,6.60
2018-06-19T02:43:11.592Z,8.70
2018-06-19T02:44:11.532Z,7.70
2018-06-19T02:45:11.471Z,6.60
2018-06-19T02:46:11.416Z,7.20
2018-06-19T02:47:11.345Z,6.60
2018-06-19T02:48:11.287Z,7.10
2018-06-19T02:49:11.224Z,6.10
2018-06-19T02:50:11.168Z,7.10
2018-06-19T02:51:11.106Z,6.80
2018-06-19T02:52:11.043Z,6.10
2018-06-19T02:53:10.978Z,6.80
2018-06-19T02:54:10.919Z,7.40
2018-06-19T02:55:10.858Z,6.60
2018-06-19T02:56:10.794Z,7.20
2018-06-19T02:57:10.734Z,8.30
2018-06-19T02:58:10.678Z,7.20
2018-06-19T02:59:10.613Z,6.40
2018-06-19T03:00:10.551Z,8.20
2018-06-19T03:01:10.505Z,6.50
2018-06-19T03:02:10.427Z,8.50
2018-06-19T03:03:10.368Z,6.60
2018-06-19T03:04:10.309Z,6.60
2018-06-19T03:05:10.240Z,6.50
2018-06-19T03:06:10.181Z,8.50
2018-06-19T03:07:10.123Z,7.50
2018-06-19T03:08:10.077Z,6.70
2018-06-19T03:09:10.000Z,9.50
2018-06-19T03:10:09.936Z,7.60
2018-06-19T03:11:09.874Z,6.70
2018-06-19T03:12:09.817Z,7.60
2018-06-19T03:13:09.756Z,7.50
2018-06-19T03:14:09.691Z,10.80
2018-06-19T03:15:09.633Z,7.70
2018-06-19T03:16:09.580Z,7.00
2018-06-19T03:17:09.506Z,7.40
2018-06-19T03:18:09.451Z,8.60
2018-06-19T03:19:09.393Z,8.80
2018-06-19T03:20:09.326Z,9.20
2018-06-19T03:21:09.274Z,8.50
2018-06-19T03:22:09.203Z,8.80
2018-06-19T03:23:09.138Z,6.40
2018-06-19T03:24:09.083Z,8.20
2018-06-19T03:25:09.026Z,9.20
2018-06-19T03:26:08.959Z,6.40
2018-06-19T03:27:08.899Z,7.40
2018-06-19T03:28:08.848Z,8.10
2018-06-19T03:29:08.771Z,7.20
2018-06-19T03:30:08.791Z,7.90
2018-06-19T03:31:08.651Z,6.20
2018-06-19T03:32:08.589Z,7.00
2018-06-19T03:33:08.537Z,7.50
2018-06-19T03:34:08.471Z,7.70
2018-06-19T03:35:08.403Z,7.10
2018-06-19T03:36:08.350Z,7.40
2018-06-19T03:37:08.284Z,7.90
2018-06-19T03:38:08.223Z,6.90
2018-06-19T03:39:08.164Z,6.00
2018-06-19T03:40:08.115Z,7.30
2018-06-19T03:41:08.041Z,7.40
2018-06-19T03:42:07.979Z,6.60
2018-06-19T03:43:07.915Z,6.80
2018-06-19T03:44:07.857Z,7.30
2018-06-19T03:45:07.798Z,10.20
2018-06-19T03:46:07.737Z,7.10
2018-06-19T03:47:07.673Z,7.00
2018-06-19T03:48:07.615Z,7.70
2018-06-19T03:49:07.551Z,8.00
2018-06-19T03:50:07.488Z,7.60
2018-06-19T03:51:07.431Z,7.40
2018-06-19T03:52:07.375Z,7.80
2018-06-19T03:53:07.315Z,10.20
2018-06-19T03:54:07.246Z,8.90
2018-06-19T03:55:07.188Z,9.50
2018-06-19T03:56:07.130Z,6.80
2018-06-19T03:57:07.065Z,5.90
2018-06-19T03:58:06.998Z,6.30
2018-06-19T03:59:06.943Z,7.40
2018-06-19T04:00:06.880Z,6.00
2018-06-19T04:01:06.819Z,6.20
2018-06-19T04:02:06.765Z,8.10
2018-06-19T04:03:06.699Z,7.70
2018-06-19T04:04:06.635Z,8.10
2018-06-19T04:05:06.579Z,8.70
2018-06-19T04:06:06.513Z,8.60
2018-06-19T04:07:06.458Z,6.90
2018-06-19T04:08:06.392Z,7.90
2018-06-19T04:09:06.331Z,6.60
2018-06-19T04:10:06.269Z,6.80
2018-06-19T04:11:06.214Z,8.10
2018-06-19T04:12:06.147Z,8.40
2018-06-19T04:13:06.086Z,7.90
2018-06-19T04:14:06.028Z,9.10
2018-06-19T04:15:05.966Z,6.50
2018-06-19T04:16:05.901Z,10.70
2018-06-19T04:17:05.849Z,6.80
2018-06-19T04:18:05.776Z,7.40
2018-06-19T04:19:05.718Z,8.20
2018-06-19T04:20:05.660Z,7.50
2018-06-19T04:21:05.598Z,7.50
2018-06-19T04:22:05.537Z,6.90
2018-06-19T04:23:05.476Z,7.30
2018-06-19T04:24:05.415Z,7.70
2018-06-19T04:25:05.356Z,8.40
2018-06-19T04:26:05.296Z,6.50
2018-06-19T04:27:05.231Z,8.50
2018-06-19T04:28:05.171Z,7.00
2018-06-19T04:29:05.110Z,6.10
2018-06-19T04:30:05.048Z,7.20
2018-06-19T04:31:04.987Z,8.40
2018-06-19T04:32:04.926Z,8.00
2018-06-19T04:33:04.870Z,7.50
2018-06-19T04:34:04.806Z,7.80
2018-06-19T04:35:04.743Z,7.70
2018-06-19T04:36:04.684Z,7.60
2018-06-19T04:37:04.623Z,8.80
2018-06-19T04:38:04.561Z,7.50
2018-06-19T04:39:04.501Z,8.10
2018-06-19T04:40:04.443Z,7.90
2018-06-19T04:41:04.379Z,9.00
2018-06-19T04:42:04.391Z,8.20
2018-06-19T04:43:04.261Z,9.30
2018-06-19T04:44:04.197Z,7.70
2018-06-19T04:45:04.137Z,7.40
2018-06-19T04:46:04.074Z,6.40
2018-06-19T04:47:04.016Z,7.80
2018-06-19T04:48:03.953Z,11.20
2018-06-19T04:49:03.893Z,6.20
2018-06-19T04:50:03.832Z,11.30
2018-06-19T04:51:03.772Z,7.70
2018-06-19T04:52:03.710Z,7.10
2018-06-19T04:53:03.650Z,8.00
2018-06-19T04:54:03.589Z,8.00
2018-06-19T04:55:03.527Z,7.10
2018-06-19T04:56:03.469Z,8.60
2018-06-19T04:57:03.416Z,6.20
2018-06-19T04:58:03.344Z,7.00
2018-06-19T04:59:03.287Z,8.00
2018-06-19T05:00:03.227Z,6.50
2018-06-19T05:01:03.162Z,8.50
2018-06-19T05:02:03.104Z,7.20
2018-06-19T05:03:03.054Z,8.50
2018-06-19T05:04:02.983Z,8.50
2018-06-19T05:05:02.926Z,5.60
2018-06-19T05:06:02.863Z,8.30
2018-06-19T05:07:02.797Z,6.70
2018-06-19T05:08:02.743Z,7.30
2018-06-19T05:09:02.684Z,8.50
2018-06-19T05:10:02.623Z,7.30
2018-06-19T05:11:02.560Z,7.10
2018-06-19T05:12:02.506Z,5.90
2018-06-19T05:13:02.443Z,8.80
2018-06-19T05:14:02.381Z,7.30
2018-06-19T05:15:02.318Z,7.50
2018-06-19T05:16:02.261Z,7.30
2018-06-19T05:17:02.209Z,6.80
2018-06-19T05:18:02.141Z,7.30
2018-06-19T05:19:02.079Z,7.20
2018-06-19T05:20:02.018Z,7.60
2018-06-19T05:21:01.960Z,6.90
2018-06-19T05:22:01.896Z,6.90
2018-06-19T05:23:01.836Z,6.20
2018-06-19T05:24:01.776Z,6.90
2018-06-19T05:25:01.737Z,10.30
2018-06-19T05:26:01.685Z,7.30
2018-06-19T05:27:01.719Z,8.70
2018-06-19T05:28:01.537Z,7.90
2018-06-19T05:29:01.474Z,8.40
2018-06-19T05:30:01.418Z,9.20
2018-06-19T05:31:01.354Z,8.80
2018-06-19T05:32:01.299Z,7.30
2018-06-19T05:33:01.234Z,11.50
2018-06-19T05:34:01.173Z,6.10
2018-06-19T05:35:01.132Z,10.70
2018-06-19T05:36:01.049Z,7.70
2018-06-19T05:37:00.995Z,7.00
2018-06-19T05:38:00.935Z,10.10
2018-06-19T05:39:00.873Z,9.50
2018-06-19T05:40:00.814Z,8.60
2018-06-19T05:41:00.753Z,6.10
2018-06-19T05:42:00.695Z,7.70
2018-06-19T05:43:00.646Z,7.70
2018-06-19T05:44:00.572Z,5.90
2018-06-19T05:45:00.515Z,6.50
2018-06-19T05:46:00.451Z,6.90
2018-06-19T05:47:00.395Z,8.40
2018-06-19T05:48:00.332Z,9.20
2018-06-19T05:49:00.276Z,7.30
2018-06-19T05:50:00.226Z,6.10
2018-06-19T05:51:00.152Z,8.00
2018-06-19T05:52:00.093Z,12.40
2018-06-19T05:53:00.034Z,8.00
2018-06-19T05:53:59.974Z,8.70
2018-06-19T05:54:59.914Z,7.70
2018-06-19T05:55:59.851Z,8.90
2018-06-19T05:56:59.795Z,8.90
2018-06-19T05:57:59.744Z,7.70
2018-06-19T05:58:59.676Z,7.30
2018-06-19T05:59:59.626Z,9.10
2018-06-19T06:00:59.565Z,8.40
2018-06-19T06:01:59.494Z,8.70
2018-06-19T06:02:59.445Z,7.60
2018-06-19T06:03:59.377Z,7.70
2018-06-19T06:04:59.322Z,8.50
2018-06-19T06:05:59.257Z,6.60
2018-06-19T06:06:59.198Z,10.40
2018-06-19T06:07:59.139Z,8.70
2018-06-19T06:08:59.079Z,5.90
2018-06-19T06:09:59.028Z,7.90
2018-06-19T06:10:58.969Z,7.50
2018-06-19T06:11:58.900Z,5.60
2018-06-19T06:12:58.840Z,6.90
2018-06-19T06:13:58.781Z,8.20
2018-06-19T06:14:58.724Z,8.30
2018-06-19T06:15:58.661Z,7.00
2018-06-19T06:16:58.603Z,6.80
2018-06-19T06:17:58.548Z,6.50
2018-06-19T06:18:58.481Z,8.60
2018-06-19T06:19:58.440Z,6.00
2018-06-19T06:20:58.370Z,6.90
2018-06-19T06:21:58.390Z,7.30
2018-06-19T06:22:58.248Z,7.10
2018-06-19T06:23:58.192Z,9.50
2018-06-19T06:24:58.130Z,7.30
2018-06-19T06:25:58.070Z,6.50
2018-06-19T06:26:58.018Z,6.30
2018-06-19T06:27:57.951Z,6.10
2018-06-19T06:28:57.895Z,8.10
2018-06-19T06:29:57.834Z,8.90
2018-06-19T06:30:57.775Z,5.60
2018-06-19T06:31:57.744Z,7.70
2018-06-19T06:32:57.655Z,4.70
2018-06-19T06:33:57.601Z,7.50
2018-06-19T06:34:57.542Z,6.60
2018-06-19T06:35:57.480Z,5.90
2018-06-19T06:36:57.427Z,6.80
2018-06-19T06:37:57.362Z,8.90
2018-06-19T06:38:57.306Z,9.40
2018-06-19T06:39:57.245Z,9.20
2018-06-19T06:40:57.188Z,9.50
2018-06-19T06:41:57.127Z,9.00
2018-06-19T06:42:57.072Z,7.80
2018-06-19T06:43:57.012Z,8.30
2018-06-19T06:44:56.952Z,8.00
2018-06-19T06:45:56.898Z,6.80
2018-06-19T06:46:56.829Z,9.10
2018-06-19T06:47:56.785Z,7.70
2018-06-19T06:48:56.725Z,8.70
2018-06-19T06:49:56.668Z,4.90
2018-06-19T06:50:56.598Z,6.80
2018-06-19T06:51:56.546Z,6.30
2018-06-19T06:52:56.482Z,4.90
2018-06-19T06:53:56.423Z,8.30
2018-06-19T06:54:56.376Z,5.40
2018-06-19T06:55:56.310Z,7.60
2018-06-19T06:56:56.264Z,6.70
2018-06-19T06:57:56.188Z,4.60
2018-06-19T06:58:56.143Z,6.00
2018-06-19T06:59:56.075Z,6.20
2018-06-19T07:00:56.011Z,4.50
2018-06-19T07:01:55.957Z,6.20
2018-06-19T07:02:55.898Z,5.90
2018-06-19T07:03:55.842Z,6.40
2018-06-19T07:04:55.785Z,4.30
2018-06-19T07:05:55.725Z,5.30
2018-06-19T07:06:55.665Z,5.60
2018-06-19T07:07:55.605Z,8.00
2018-06-19T07:08:55.549Z,8.70
2018-06-19T07:09:55.529Z,7.00
2018-06-19T07:10:55.431Z,7.30
2018-06-19T07:11:55.374Z,6.10
2018-06-19T07:12:55.319Z,6.40
2018-06-19T07:13:55.258Z,5.90
2018-06-19T07:14:55.201Z,4.40
2018-06-19T07:15:55.163Z,6.60
2018-06-19T07:16:55.086Z,4.50
2018-06-19T07:17:55.029Z,5.90
2018-06-19T07:18:55.166Z,4.10
2018-06-19T07:19:54.910Z,6.70
2018-06-19T07:20:54.854Z,6.30
2018-06-19T07:21:54.798Z,4.80
2018-06-19T07:22:54.743Z,5.50
2018-06-19T07:23:54.683Z,4.30
2018-06-19T07:24:54.623Z,7.40
2018-06-19T07:25:54.623Z,4.80
2018-06-19T07:26:54.508Z,9.20
2018-06-19T07:27:54.448Z,7.50
2018-06-19T07:28:54.393Z,5.10
2018-06-19T07:29:54.336Z,5.00
2018-06-19T07:30:54.283Z,6.10
2018-06-19T07:31:54.264Z,5.70
2018-06-19T07:32:54.162Z,5.70
2018-06-19T07:33:54.103Z,5.20
2018-06-19T07:34:54.044Z,5.00
2018-06-19T07:35:53.987Z,4.70
2018-06-19T07:36:53.930Z,5.00
2018-06-19T07:37:53.963Z,5.60
2018-06-19T07:38:53.811Z,5.00
2018-06-19T07:39:53.760Z,4.30
2018-06-19T07:40:53.702Z,3.90
2018-06-19T07:41:53.648Z,6.90
2018-06-19T07:42:53.589Z,5.60
2018-06-19T07:43:53.592Z,6.50
2018-06-19T07:44:53.487Z,5.00
2018-06-19T07:45:53.416Z,5.20
2018-06-19T07:46:53.355Z,6.10
2018-06-19T07:47:53.297Z,7.90
2018-06-19T07:48:53.250Z,4.60
2018-06-19T07:49:53.178Z,5.40
2018-06-19T07:50:53.124Z,5.50
2018-06-19T07:51:53.069Z,6.10
2018-06-19T07:52:53.012Z,5.60
2018-06-19T07:53:52.954Z,6.40
2018-06-19T07:54:52.895Z,6.50
2018-06-19T07:55:52.839Z,4.40
2018-06-19T07:56:52.781Z,4.50
2018-06-19T07:57:52.723Z,4.80
2018-06-19T07:58:52.667Z,4.30
2018-06-19T07:59:52.605Z,3.70
2018-06-19T08:00:52.557Z,5.10
2018-06-19T08:01:52.546Z,4.80
2018-06-19T08:02:52.531Z,5.00
2018-06-19T08:03:52.383Z,4.90
2018-06-19T08:04:52.332Z,4.90
2018-06-19T08:05:52.266Z,5.30
2018-06-19T08:06:52.222Z,5.20
2018-06-19T08:07:52.154Z,5.30
2018-06-19T08:08:52.114Z,6.10
2018-06-19T08:09:52.036Z,5.20
2018-06-19T08:10:51.985Z,4.70
2018-06-19T08:11:51.928Z,6.40
2018-06-19T08:12:51.868Z,7.10
2018-06-19T08:13:51.816Z,3.30
2018-06-19T08:14:51.771Z,11.70
2018-06-19T08:15:51.698Z,7.60
2018-06-19T08:16:51.643Z,7.80
2018-06-19T08:17:51.587Z,4.60
2018-06-19T08:18:51.599Z,6.20
2018-06-19T08:19:51.475Z,5.80
2018-06-19T08:20:51.420Z,5.30
2018-06-19T08:21:51.359Z,6.00
2018-06-19T08:22:51.320Z,25.50
2018-06-19T08:23:51.248Z,10.70
2018-06-19T08:24:51.192Z,17.70
2018-06-19T08:25:51.133Z,12.50
2018-06-19T08:26:51.073Z,12.10
2018-06-19T08:27:51.023Z,62.60
2018-06-19T08:28:50.965Z,53.90
2018-06-19T08:29:50.907Z,18.40
2018-06-19T08:30:50.850Z,19.20
2018-06-19T08:31:50.794Z,13.70
2018-06-19T08:32:50.739Z,13.90
2018-06-19T08:33:50.708Z,8.60
2018-06-19T08:34:50.620Z,8.30
2018-06-19T08:35:50.573Z,7.50
2018-06-19T08:36:50.513Z,64.80
2018-06-19T08:37:50.455Z,25.10
2018-06-19T08:38:50.415Z,15.70
2018-06-19T08:39:50.341Z,11.00
2018-06-19T08:40:50.289Z,9.90
2018-06-19T08:41:50.258Z,8.00
2018-06-19T08:42:50.175Z,8.00
2018-06-19T08:43:50.123Z,9.60
2018-06-19T08:44:50.066Z,10.60
2018-06-19T08:45:50.015Z,7.50
2018-06-19T08:46:49.950Z,14.30
2018-06-19T08:47:49.896Z,15.00
2018-06-19T08:48:49.842Z,8.10
2018-06-19T08:49:49.785Z,10.50
2018-06-19T08:50:49.728Z,7.50
2018-06-19T08:51:49.682Z,10.30
2018-06-19T08:52:49.619Z,21.60
2018-06-19T08:53:49.559Z,9.50
2018-06-19T08:54:49.547Z,10.10
2018-06-19T08:55:49.449Z,7.30
2018-06-19T08:56:49.394Z,5.60
2018-06-19T08:57:49.338Z,9.40
2018-06-19T08:58:49.281Z,199.90
2018-06-19T08:59:49.226Z,78.30
2018-06-19T09:00:49.171Z,151.60
2018-06-19T09:01:49.113Z,229.90
2018-06-19T09:02:49.060Z,140.00
2018-06-19T09:03:49.001Z,243.30
2018-06-19T09:04:48.952Z,182.20
2018-06-19T09:05:48.889Z,116.50
2018-06-19T09:06:48.833Z,93.00
2018-06-19T09:07:48.777Z,67.70
2018-06-19T09:08:48.722Z,86.90
2018-06-19T09:09:48.666Z,42.70
2018-06-19T09:10:48.612Z,32.20
2018-06-19T09:11:48.557Z,22.80
2018-06-19T09:12:48.500Z,16.20
2018-06-19T09:13:48.444Z,31.20
2018-06-19T09:14:48.387Z,62.90
2018-06-19T09:15:48.335Z,35.70
2018-06-19T09:16:48.275Z,16.00
2018-06-19T09:17:48.223Z,37.20
2018-06-19T09:18:48.164Z,121.50
2018-06-19T09:19:48.109Z,216.70
2018-06-19T09:20:48.055Z,130.50
2018-06-19T09:21:47.998Z,62.80
2018-06-19T09:22:47.945Z,44.70
2018-06-19T09:23:47.892Z,24.90
2018-06-19T09:24:47.837Z,12.20
2018-06-19T09:25:47.783Z,7.30
2018-06-19T09:26:47.730Z,7.00
2018-06-19T09:27:47.680Z,33.30
2018-06-19T09:28:47.624Z,4.00
2018-06-19T09:29:47.569Z,6.90
2018-06-19T09:30:47.517Z,9.30
2018-06-19T09:31:47.466Z,7.30
2018-06-19T09:32:47.414Z,5.40
2018-06-19T09:33:47.372Z,3.90
2018-06-19T09:34:47.317Z,5.60
2018-06-19T09:35:47.308Z,4.70
2018-06-19T09:36:47.290Z,5.30
2018-06-19T09:37:47.150Z,2.50
2018-06-19T09:38:47.098Z,2.90
2018-06-19T09:39:47.088Z,3.50
2018-06-19T09:40:47.004Z,4.40
2018-06-19T09:41:46.947Z,4.50
2018-06-19T09:42:46.892Z,1.90
2018-06-19T09:43:46.851Z,3.00
2018-06-19T09:44:46.796Z,2.10
2018-06-19T09:45:46.748Z,6.70
2018-06-19T09:46:46.698Z,3.80
2018-06-19T09:47:46.647Z,2.70
2018-06-19T09:48:46.600Z,2.10
2018-06-19T09:49:46.556Z,5.50
2018-06-19T09:50:46.501Z,3.70
2018-06-19T09:51:46.453Z,3.30
2018-06-19T09:52:46.404Z,2.80
2018-06-19T09:53:46.356Z,3.80
2018-06-19T09:54:46.308Z,5.20
2018-06-19T09:55:46.263Z,3.50
2018-06-19T09:56:46.216Z,4.10
2018-06-19T09:57:46.162Z,2.20
2018-06-19T09:58:46.116Z,2.50
2018-06-19T09:59:46.066Z,3.00
2018-06-19T10:00:46.020Z,3.70
2018-06-19T10:01:45.971Z,2.40
2018-06-19T10:02:45.922Z,2.20
2018-06-19T10:03:45.878Z,6.20
2018-06-19T10:04:45.826Z,6.80
2018-06-19T10:05:45.792Z,3.70
2018-06-19T10:06:45.728Z,5.20
2018-06-19T10:07:45.672Z,4.90
2018-06-19T10:08:45.628Z,2.50
2018-06-19T10:09:45.575Z,2.70
2018-06-19T10:10:45.525Z,6.70
2018-06-19T10:11:45.474Z,4.90
2018-06-19T10:12:45.428Z,5.30
2018-06-19T10:13:45.372Z,7.40
2018-06-19T10:14:45.324Z,5.90
2018-06-19T10:15:45.268Z,4.90
2018-06-19T10:16:45.238Z,4.60
2018-06-19T10:17:45.167Z,3.90
2018-06-19T10:18:45.118Z,6.40
2018-06-19T10:19:45.081Z,9.60
2018-06-19T10:20:45.014Z,9.30
2018-06-19T10:21:44.960Z,6.40
2018-06-19T10:22:44.917Z,3.70
2018-06-19T10:23:45.230Z,3.20
2018-06-19T10:24:44.871Z,2.90
2018-06-19T10:25:44.772Z,3.60
2018-06-19T10:26:44.717Z,2.20
2018-06-19T10:27:44.644Z,6.70
2018-06-19T10:28:44.596Z,2.60
2018-06-19T10:29:44.539Z,5.10
2018-06-19T10:30:44.501Z,3.40
2018-06-19T10:31:44.431Z,2.60
2018-06-19T10:32:44.376Z,4.40
2018-06-19T10:33:44.323Z,4.60
2018-06-19T10:34:44.332Z,7.80
2018-06-19T10:35:44.242Z,5.70
2018-06-19T10:36:44.207Z,11.90
2018-06-19T10:37:44.108Z,4.10
2018-06-19T10:38:44.056Z,4.20
2018-06-19T10:39:44.001Z,44.20
2018-06-19T10:40:43.951Z,21.10
2018-06-19T10:41:43.896Z,33.80
2018-06-19T10:42:43.846Z,25.80
2018-06-19T10:43:43.794Z,14.60
2018-06-19T10:44:43.741Z,9.60
2018-06-19T10:45:43.687Z,39.10
2018-06-19T10:46:43.638Z,27.20
2018-06-19T10:47:43.583Z,46.20
2018-06-19T10:48:43.532Z,82.70
2018-06-19T10:49:43.478Z,109.10
2018-06-19T10:50:43.692Z,53.10
2018-06-19T10:51:43.393Z,27.20
2018-06-19T10:52:43.436Z,27.90
2018-06-19T10:53:43.267Z,10.10
2018-06-19T10:54:43.214Z,10.30
2018-06-19T10:55:43.166Z,10.10
2018-06-19T10:56:43.112Z,19.50
2018-06-19T10:57:43.053Z,6.00
2018-06-19T10:58:43.001Z,13.30
2018-06-19T10:59:42.952Z,69.30
2018-06-19T11:00:42.896Z,29.20
2018-06-19T11:01:42.840Z,20.70
2018-06-19T11:02:42.786Z,13.10
2018-06-19T11:03:42.733Z,8.80
2018-06-19T11:04:42.680Z,8.50
2018-06-19T11:05:42.625Z,22.20
2018-06-19T11:06:42.572Z,14.10
2018-06-19T11:07:42.583Z,7.00
2018-06-19T11:08:42.467Z,6.40
2018-06-19T11:09:42.409Z,4.30
2018-06-19T11:10:42.356Z,119.20
2018-06-19T11:11:42.306Z,53.90
2018-06-19T11:12:42.250Z,25.10
2018-06-19T11:13:42.191Z,17.80
2018-06-19T11:14:42.141Z,16.10
2018-06-19T11:15:42.086Z,10.50
2018-06-19T11:16:42.034Z,7.70
2018-06-19T11:17:41.979Z,5.20
2018-06-19T11:18:41.920Z,3.00
2018-06-19T11:19:41.870Z,30.80
2018-06-19T11:20:41.818Z,47.70
2018-06-19T11:21:41.757Z,24.90
2018-06-19T11:22:41.704Z,13.10
2018-06-19T11:23:41.650Z,7.20
2018-06-19T11:24:41.598Z,6.20
2018-06-19T11:25:41.560Z,3.70
2018-06-19T11:26:41.486Z,3.90
2018-06-19T11:27:41.432Z,5.30
2018-06-19T11:28:41.377Z,3.10
2018-06-19T11:29:41.322Z,4.20
2018-06-19T11:30:41.289Z,2.70
2018-06-19T11:31:41.211Z,3.40
2018-06-19T11:32:41.159Z,4.70
2018-06-19T11:33:41.104Z,3.60
2018-06-19T11:34:41.048Z,3.30
2018-06-19T11:35:40.999Z,2.70
2018-06-19T11:36:40.948Z,4.10
2018-06-19T11:37:40.882Z,4.40
2018-06-19T11:38:40.827Z,12.70
2018-06-19T11:39:40.771Z,12.80
2018-06-19T11:40:40.717Z,6.50
2018-06-19T11:41:40.664Z,11.30
2018-06-19T11:42:40.607Z,22.20
2018-06-19T11:43:40.552Z,11.40
2018-06-19T11:44:40.512Z,7.10
2018-06-19T11:45:40.443Z,4.10
2018-06-19T11:46:40.390Z,4.40
2018-06-19T11:47:40.331Z,4.40
2018-06-19T11:48:40.276Z,31.80
2018-06-19T11:49:40.221Z,80.70
2018-06-19T11:50:40.165Z,24.30
2018-06-19T11:51:40.111Z,10.50
2018-06-19T11:52:40.055Z,10.20
2018-06-19T11:53:39.999Z,6.90
2018-06-19T11:54:39.995Z,5.50
2018-06-19T11:55:39.890Z,3.80
2018-06-19T11:56:39.835Z,4.30
2018-06-19T11:57:39.779Z,5.40
2018-06-19T11:58:39.723Z,5.40
2018-06-19T11:59:39.669Z,4.90
2018-06-19T12:00:39.612Z,3.40
2018-06-19T12:01:39.557Z,4.70
2018-06-19T12:02:39.501Z,2.60
2018-06-19T12:03:39.447Z,19.70
2018-06-19T12:04:39.392Z,29.00
2018-06-19T12:05:39.336Z,11.20
2018-06-19T12:06:39.297Z,5.60
2018-06-19T12:07:39.223Z,5.10
2018-06-19T12:08:39.172Z,4.10
2018-06-19T12:09:39.112Z,6.10
2018-06-19T12:10:39.058Z,4.50
2018-06-19T12:11:39.000Z,6.70
2018-06-19T12:12:38.948Z,4.20
2018-06-19T12:13:38.890Z,4.60
2018-06-19T12:14:38.833Z,3.70
2018-06-19T12:15:38.779Z,5.10
2018-06-19T12:16:38.723Z,4.00
2018-06-19T12:17:38.669Z,2.90
2018-06-19T12:18:38.612Z,3.30
2018-06-19T12:19:38.557Z,4.10
2018-06-19T12:20:38.501Z,5.60
2018-06-19T12:21:38.444Z,2.80
2018-06-19T12:22:38.389Z,2.90
2018-06-19T12:23:38.332Z,5.10
2018-06-19T12:24:38.276Z,2.60
2018-06-19T12:25:38.221Z,4.80
2018-06-19T12:26:38.176Z,6.20
2018-06-19T12:27:38.111Z,8.60
2018-06-19T12:28:38.053Z,8.50
2018-06-19T12:29:37.999Z,10.40
2018-06-19T12:30:37.943Z,5.00
2018-06-19T12:31:37.885Z,2.80
2018-06-19T12:32:37.825Z,2.20
2018-06-19T12:33:37.772Z,2.20
2018-06-19T12:34:37.715Z,2.10
2018-06-19T12:35:37.662Z,2.60
2018-06-19T12:36:37.608Z,2.20
2018-06-19T12:37:37.550Z,4.00
2018-06-19T12:38:37.500Z,3.80
2018-06-19T12:39:37.440Z,2.30
2018-06-19T12:40:37.385Z,2.10
2018-06-19T12:41:37.391Z,4.70
2018-06-19T12:42:37.270Z,3.00
2018-06-19T12:43:37.217Z,2.80
2018-06-19T12:44:37.159Z,3.90
2018-06-19T12:45:37.105Z,2.60
2018-06-19T12:46:37.050Z,3.00
2018-06-19T12:47:36.992Z,2.50
2018-06-19T12:48:36.936Z,2.50
2018-06-19T12:49:36.879Z,2.80
2018-06-19T12:50:36.825Z,2.70
2018-06-19T12:51:36.776Z,2.80
2018-06-19T12:52:36.712Z,3.70
2018-06-19T12:53:36.656Z,2.20
2018-06-19T12:54:36.601Z,3.30
2018-06-19T12:55:36.545Z,2.70
2018-06-19T12:56:36.493Z,2.40
2018-06-19T12:57:36.433Z,2.20
2018-06-19T12:58:36.422Z,2.70
2018-06-19T12:59:36.322Z,1.80
2018-06-19T13:00:36.267Z,2.40
2018-06-19T13:01:36.209Z,1.90
2018-06-19T13:02:36.156Z,1.90
2018-06-19T13:03:36.098Z,3.60
2018-06-19T13:04:36.044Z,4.00
2018-06-19T13:05:35.988Z,3.10
2018-06-19T13:06:35.931Z,3.60
2018-06-19T13:07:35.880Z,2.80
2018-06-19T13:08:35.818Z,2.30
2018-06-19T13:09:35.765Z,3.30
2018-06-19T13:10:35.707Z,2.10
2018-06-19T13:11:35.653Z,2.60
2018-06-19T13:12:35.599Z,2.60
2018-06-19T13:13:35.538Z,2.90